createdAt,value
2018-11-10T00:02:30.475Z,99.90
2018-11-10T00:05:06.703Z,99.90
2018-11-10T00:07:42.239Z,99.90
2018-11-10T00:10:18.371Z,99.90
2018-11-10T00:12:53.822Z,99.90
2018-11-10T00:15:29.224Z,99.90
2018-11-10T00:18:04.753Z,99.90
2018-11-10T00:20:40.391Z,99.90
2018-11-10T00:23:15.751Z,99.90
2018-11-10T00:25:51.178Z,99.90
2018-11-10T00:28:26.606Z,99.90
2018-11-10T00:31:02.301Z,99.90
2018-11-10T00:33:37.814Z,99.90
2018-11-10T00:36:13.277Z,99.90
2018-11-10T00:38:48.761Z,99.90
2018-11-10T00:41:24.264Z,99.90
2018-11-10T00:43:59.732Z,99.90
2018-11-10T00:46:35.264Z,99.90
2018-11-10T00:49:10.590Z,99.90
2018-11-10T00:51:45.954Z,99.90
2018-11-10T00:54:21.494Z,99.90
2018-11-10T00:56:56.880Z,99.90
2018-11-10T00:59:32.240Z,99.90
2018-11-10T01:02:07.513Z,99.90
2018-11-10T01:04:42.864Z,99.90
2018-11-10T01:07:18.075Z,99.90
2018-11-10T01:09:53.540Z,99.90
2018-11-10T01:12:28.782Z,99.90
2018-11-10T01:15:04.197Z,99.90
2018-11-10T01:17:39.851Z,99.90
2018-11-10T01:20:15.484Z,99.90
2018-11-10T01:22:51.053Z,99.90
2018-11-10T01:25:26.681Z,99.90
2018-11-10T01:28:02.445Z,99.90
2018-11-10T01:30:37.804Z,99.90
2018-11-10T01:33:13.330Z,99.90
2018-11-10T01:35:48.990Z,99.90
2018-11-10T01:38:24.563Z,99.90
2018-11-10T01:40:59.852Z,99.90
2018-11-10T01:43:35.530Z,99.90
2018-11-10T01:46:10.940Z,99.90
2018-11-10T01:48:46.427Z,99.90
2018-11-10T01:51:22.053Z,99.90
2018-11-10T01:53:57.516Z,99.90
2018-11-10T01:56:32.823Z,99.90
2018-11-10T01:59:08.213Z,99.90
2018-11-10T02:01:43.453Z,99.90
2018-11-10T02:04:18.773Z,99.90
2018-11-10T02:06:54.281Z,99.90
2018-11-10T02:09:29.964Z,99.90
2018-11-10T02:12:05.571Z,99.90
2018-11-10T02:14:40.961Z,99.90
2018-11-10T02:17:16.173Z,99.90
2018-11-10T02:19:51.512Z,99.90
2018-11-10T02:22:27.061Z,99.90
2018-11-10T02:25:02.380Z,99.90
2018-11-10T02:27:37.950Z,99.90
2018-11-10T02:30:13.545Z,99.90
2018-11-10T02:32:48.920Z,99.90
2018-11-10T02:35:24.172Z,99.90
2018-11-10T02:37:59.555Z,99.90
2018-11-10T02:40:34.976Z,99.90
2018-11-10T02:43:10.302Z,99.90
2018-11-10T02:45:45.631Z,99.90
2018-11-10T02:48:21.136Z,99.90
2018-11-10T02:50:56.651Z,99.90
2018-11-10T02:53:32.004Z,99.90
2018-11-10T02:56:07.424Z,99.90
2018-11-10T02:58:42.993Z,99.90
2018-11-10T03:01:18.381Z,99.90
2018-11-10T03:03:53.759Z,99.90
2018-11-10T03:06:29.006Z,99.90
2018-11-10T03:09:05.252Z,99.90
2018-11-10T03:11:40.901Z,99.90
2018-11-10T03:14:16.364Z,99.90
2018-11-10T03:16:51.773Z,99.90
2018-11-10T03:19:27.110Z,99.90
2018-11-10T03:22:02.247Z,99.90
2018-11-10T03:24:37.643Z,99.90
2018-11-10T03:27:13.375Z,99.90
2018-11-10T03:29:48.838Z,99.90
2018-11-10T03:32:24.322Z,99.90
2018-11-10T03:34:59.579Z,99.90
2018-11-10T03:37:34.811Z,99.90
2018-11-10T03:40:11.428Z,99.90
2018-11-10T03:42:47.564Z,99.90
2018-11-10T03:45:23.101Z,99.90
2018-11-10T03:47:58.702Z,99.90
2018-11-10T03:50:34.291Z,99.90
2018-11-10T03:53:09.648Z,99.90
2018-11-10T03:55:44.861Z,99.90
2018-11-10T03:58:20.402Z,99.90
2018-11-10T04:00:55.654Z,99.90
2018-11-10T04:03:31.204Z,99.90
2018-11-10T04:06:06.762Z,99.90
2018-11-10T04:08:42.211Z,99.90
2018-11-10T04:11:17.665Z,99.90
2018-11-10T04:13:53.184Z,99.90
2018-11-10T04:16:28.737Z,99.90
2018-11-10T04:19:04.282Z,99.90
2018-11-10T04:21:39.806Z,99.90
2018-11-10T04:24:15.404Z,99.90
2018-11-10T04:26:50.814Z,99.90
2018-11-10T04:29:26.164Z,99.90
2018-11-10T04:32:01.672Z,99.90
2018-11-10T04:34:37.062Z,99.90
2018-11-10T04:37:12.461Z,99.90
2018-11-10T04:39:47.864Z,99.90
2018-11-10T04:42:23.261Z,99.90
2018-11-10T04:44:58.721Z,99.90
2018-11-10T04:47:34.081Z,99.90
2018-11-10T04:50:10.834Z,99.90
2018-11-10T04:52:46.023Z,99.90
2018-11-10T04:55:21.410Z,99.90
2018-11-10T04:57:56.951Z,99.90
2018-11-10T05:00:32.431Z,99.90
2018-11-10T05:03:07.841Z,99.90
2018-11-10T05:05:43.432Z,99.90
2018-11-10T05:08:18.621Z,99.90
2018-11-10T05:10:53.971Z,99.90
2018-11-10T05:13:29.527Z,99.90
2018-11-10T05:16:04.881Z,99.90
2018-11-10T05:18:40.293Z,99.90
2018-11-10T05:21:16.346Z,99.90
2018-11-10T05:23:51.771Z,99.90
2018-11-10T05:26:27.264Z,99.90
2018-11-10T05:29:02.756Z,99.90
2018-11-10T05:31:38.261Z,99.90
2018-11-10T05:34:13.464Z,99.90
2018-11-10T05:36:49.301Z,99.90
2018-11-10T05:39:24.904Z,99.90
2018-11-10T05:42:00.591Z,99.90
2018-11-10T05:44:36.021Z,99.90
2018-11-10T05:47:11.201Z,99.90
2018-11-10T05:49:46.620Z,99.90
2018-11-10T05:52:22.156Z,99.90
2018-11-10T05:54:57.903Z,99.90
2018-11-10T05:57:33.603Z,99.90
2018-11-10T06:00:11.004Z,99.90
2018-11-10T06:02:46.412Z,99.90
2018-11-10T06:05:21.959Z,99.90
2018-11-10T06:07:57.644Z,99.90
2018-11-10T06:10:33.131Z,99.90
2018-11-10T06:13:08.738Z,99.90
2018-11-10T06:15:44.351Z,99.90
2018-11-10T06:18:19.550Z,99.90
2018-11-10T06:20:55.056Z,99.90
2018-11-10T06:23:30.673Z,99.90
2018-11-10T06:26:06.102Z,99.90
2018-11-10T06:28:41.440Z,99.90
2018-11-10T06:31:17.073Z,99.90
2018-11-10T06:33:52.407Z,99.90
2018-11-10T06:36:28.043Z,99.90
2018-11-10T06:39:03.883Z,99.90
2018-11-10T06:41:39.293Z,99.90
2018-11-10T06:44:14.763Z,99.90
2018-11-10T06:46:50.464Z,99.90
2018-11-10T06:49:25.893Z,99.90
2018-11-10T06:52:01.561Z,99.90
2018-11-10T06:54:37.133Z,99.90
2018-11-10T06:57:12.473Z,99.90
2018-11-10T06:59:47.904Z,99.90
2018-11-10T07:02:23.299Z,99.90
2018-11-10T07:04:58.733Z,99.90
2018-11-10T07:07:33.876Z,99.90
2018-11-10T07:10:09.659Z,99.90
2018-11-10T07:12:45.000Z,99.90
2018-11-10T07:15:20.563Z,99.90
2018-11-10T07:17:56.012Z,99.90
2018-11-10T07:20:31.738Z,99.90
2018-11-10T07:23:06.927Z,99.90
2018-11-10T07:25:42.025Z,99.90
2018-11-10T07:28:17.363Z,99.90
2018-11-10T07:30:52.625Z,99.90
2018-11-10T07:33:27.795Z,99.90
2018-11-10T07:36:03.191Z,99.90
2018-11-10T07:38:38.505Z,99.90
2018-11-10T07:41:13.868Z,99.90
2018-11-10T07:43:49.247Z,99.90
2018-11-10T07:46:24.560Z,99.90
2018-11-10T07:48:59.824Z,99.90
2018-11-10T07:51:35.203Z,99.90
2018-11-10T07:54:10.596Z,99.90
2018-11-10T07:56:45.901Z,99.90
2018-11-10T07:59:21.123Z,99.90
2018-11-10T08:01:56.738Z,99.90
2018-11-10T08:04:32.232Z,99.90
2018-11-10T08:07:07.715Z,99.90
2018-11-10T08:09:42.993Z,99.90
2018-11-10T08:12:18.290Z,99.90
2018-11-10T08:14:53.803Z,99.90
2018-11-10T08:17:29.172Z,99.90
2018-11-10T08:20:04.726Z,99.90
2018-11-10T08:22:40.132Z,99.90
2018-11-10T08:25:16.335Z,99.90
2018-11-10T08:27:51.961Z,99.90
2018-11-10T08:30:27.427Z,99.90
2018-11-10T08:33:03.183Z,99.90
2018-11-10T08:35:38.900Z,99.90
2018-11-10T08:38:14.501Z,99.90
2018-11-10T08:40:49.929Z,99.90
2018-11-10T08:43:25.144Z,99.90
2018-11-10T08:46:00.588Z,99.90
2018-11-10T08:48:36.162Z,99.90
2018-11-10T08:51:11.844Z,99.90
2018-11-10T08:53:47.274Z,99.90
2018-11-10T08:56:22.541Z,99.90
2018-11-10T08:58:57.900Z,99.90
2018-11-10T09:01:33.254Z,99.90
2018-11-10T09:04:08.605Z,99.90
2018-11-10T09:06:43.958Z,99.90
2018-11-10T09:09:19.301Z,99.90
2018-11-10T09:11:55.343Z,99.90
2018-11-10T09:14:30.905Z,99.90
2018-11-10T09:17:06.606Z,99.90
2018-11-10T09:19:45.730Z,99.90
2018-11-10T09:22:20.952Z,99.90
2018-11-10T09:24:56.236Z,99.90
2018-11-10T09:27:31.666Z,99.90
2018-11-10T09:30:07.695Z,99.90
2018-11-10T09:32:43.330Z,99.90
2018-11-10T09:35:18.869Z,99.90
2018-11-10T09:37:54.193Z,99.90
2018-11-10T09:40:29.721Z,99.90
2018-11-10T09:43:05.475Z,54.20
2018-11-10T09:45:40.641Z,99.90
2018-11-10T09:48:16.085Z,99.90
2018-11-10T09:50:51.512Z,1.00
2018-11-10T09:53:26.754Z,99.90
2018-11-10T09:56:02.062Z,99.90
2018-11-10T09:58:37.319Z,1.00
2018-11-10T10:01:12.830Z,99.90
2018-11-10T10:03:48.243Z,17.90
2018-11-10T10:06:23.649Z,99.90
2018-11-10T10:08:59.287Z,99.90
2018-11-10T10:11:34.711Z,99.90
2018-11-10T10:14:10.705Z,1.00
2018-11-10T10:16:46.015Z,99.90
2018-11-10T10:19:21.384Z,1.00
2018-11-10T10:21:57.094Z,1.00
2018-11-10T10:24:32.833Z,1.00
2018-11-10T10:27:08.221Z,1.00
2018-11-10T10:29:43.700Z,1.00
2018-11-10T10:32:19.124Z,73.00
2018-11-10T10:34:54.502Z,99.90
2018-11-10T10:37:29.565Z,99.90
2018-11-10T10:40:05.987Z,99.90
2018-11-10T10:42:41.298Z,99.90
2018-11-10T10:45:21.142Z,1.00
2018-11-10T10:47:56.739Z,99.90
2018-11-10T10:50:32.130Z,99.90
2018-11-10T10:53:07.557Z,1.00
2018-11-10T10:55:43.248Z,99.90
2018-11-10T10:58:18.688Z,99.90
2018-11-10T11:00:59.094Z,1.00
2018-11-10T11:03:39.550Z,1.00
2018-11-10T11:06:15.064Z,99.90
2018-11-10T11:08:50.478Z,30.50
2018-11-10T11:11:25.803Z,1.00
2018-11-10T11:14:01.462Z,1.00
2018-11-10T11:16:36.823Z,1.00
2018-11-10T11:19:12.255Z,1.00
2018-11-10T11:21:47.803Z,99.90
2018-11-10T11:24:23.045Z,99.90
2018-11-10T11:26:58.381Z,99.90
2018-11-10T11:29:33.756Z,99.90
2018-11-10T11:32:09.041Z,99.90
2018-11-10T11:34:44.425Z,99.40
2018-11-10T11:37:19.830Z,99.90
2018-11-10T11:39:55.080Z,99.90
2018-11-10T11:42:30.544Z,99.90
2018-11-10T11:45:06.383Z,99.90
2018-11-10T11:47:42.314Z,91.10
2018-11-10T11:50:17.717Z,99.90
2018-11-10T11:52:53.120Z,99.90
2018-11-10T11:55:28.871Z,99.90
2018-11-10T11:58:04.638Z,99.90
2018-11-10T12:00:39.873Z,99.90
2018-11-10T12:03:15.160Z,99.90
2018-11-10T12:05:50.589Z,99.90
2018-11-10T12:08:26.004Z,99.90
2018-11-10T12:11:01.331Z,99.90
2018-11-10T12:13:36.963Z,99.90
2018-11-10T12:16:12.444Z,99.90
2018-11-10T12:18:47.862Z,87.30
2018-11-10T12:21:23.423Z,99.90
2018-11-10T12:23:58.873Z,99.90
2018-11-10T12:26:34.509Z,99.90
2018-11-10T12:29:09.822Z,81.70
2018-11-10T12:31:45.252Z,99.80
2018-11-10T12:34:20.720Z,90.80
2018-11-10T12:36:56.277Z,51.20
2018-11-10T12:39:31.745Z,93.80
2018-11-10T12:42:07.395Z,99.90
2018-11-10T12:44:42.690Z,66.20
2018-11-10T12:47:18.105Z,1.00
2018-11-10T12:49:53.319Z,1.00
2018-11-10T12:52:28.676Z,1.00
2018-11-10T12:55:04.081Z,15.90
2018-11-10T12:57:39.703Z,1.00
2018-11-10T13:00:16.574Z,3.10
2018-11-10T13:02:52.183Z,1.00
2018-11-10T13:05:27.493Z,41.10
2018-11-10T13:08:03.022Z,1.00
2018-11-10T13:10:38.575Z,1.00
2018-11-10T13:13:13.921Z,1.00
2018-11-10T13:15:49.143Z,1.00
2018-11-10T13:18:24.493Z,1.00
2018-11-10T13:20:59.970Z,1.00
2018-11-10T13:23:35.553Z,1.00
2018-11-10T13:26:10.980Z,1.00
2018-11-10T13:28:46.491Z,1.00
2018-11-10T13:31:22.106Z,9.00
2018-11-10T13:33:57.591Z,1.00
2018-11-10T13:36:32.991Z,13.10
2018-11-10T13:39:09.407Z,46.60
2018-11-10T13:41:44.855Z,32.60
2018-11-10T13:44:20.432Z,99.90
2018-11-10T13:46:55.885Z,99.90
2018-11-10T13:49:31.550Z,99.90
2018-11-10T13:52:07.178Z,99.90
2018-11-10T13:54:42.254Z,99.90
2018-11-10T13:57:17.660Z,99.90
2018-11-10T13:59:53.133Z,99.90
2018-11-10T14:02:28.561Z,1.00
2018-11-10T14:05:04.313Z,1.00
2018-11-10T14:07:40.089Z,99.90
2018-11-10T14:10:16.269Z,99.90
2018-11-10T14:12:51.814Z,99.90
2018-11-10T14:15:27.241Z,25.80
2018-11-10T14:18:02.914Z,96.40
2018-11-10T14:20:38.287Z,99.90
2018-11-10T14:23:13.744Z,1.00
2018-11-10T14:25:49.099Z,99.90
2018-11-10T14:28:24.683Z,99.90
2018-11-10T14:30:59.930Z,98.90
2018-11-10T14:33:35.320Z,11.70
2018-11-10T14:36:10.630Z,99.90
2018-11-10T14:38:46.163Z,99.90
2018-11-10T14:41:21.520Z,99.90
2018-11-10T14:43:57.078Z,99.90
2018-11-10T14:46:32.455Z,99.90
2018-11-10T14:49:08.193Z,37.70
2018-11-10T14:51:43.964Z,99.90
2018-11-10T14:54:19.522Z,99.90
2018-11-10T14:56:54.894Z,99.90
2018-11-10T14:59:30.393Z,1.00
2018-11-10T15:02:06.178Z,1.00
2018-11-10T15:04:41.707Z,99.90
2018-11-10T15:07:17.163Z,99.90
2018-11-10T15:09:52.358Z,1.00
2018-11-10T15:12:27.837Z,1.00
2018-11-10T15:15:03.153Z,1.00
2018-11-10T15:17:39.029Z,19.50
2018-11-10T15:20:15.663Z,99.90
2018-11-10T15:22:51.277Z,99.90
2018-11-10T15:25:26.962Z,1.00
2018-11-10T15:28:02.207Z,1.00
2018-11-10T15:30:37.485Z,1.00
2018-11-10T15:33:12.983Z,1.00
2018-11-10T15:35:48.763Z,99.90
2018-11-10T15:38:24.073Z,44.50
2018-11-10T15:40:59.513Z,1.00
2018-11-10T15:43:34.923Z,40.30
2018-11-10T15:46:10.563Z,99.90
2018-11-10T15:48:45.994Z,1.00
2018-11-10T15:51:21.390Z,1.00
2018-11-10T15:53:56.634Z,1.00
2018-11-10T15:56:31.985Z,1.00
2018-11-10T15:59:07.572Z,1.00
2018-11-10T16:01:42.961Z,39.60
2018-11-10T16:04:18.430Z,1.00
2018-11-10T16:06:53.703Z,1.00
2018-11-10T16:09:29.133Z,1.00
2018-11-10T16:12:04.449Z,99.90
2018-11-10T16:14:39.811Z,1.00
2018-11-10T16:17:15.268Z,1.00
2018-11-10T16:19:50.591Z,1.00
2018-11-10T16:22:25.934Z,1.00
2018-11-10T16:25:01.604Z,1.00
2018-11-10T16:27:36.753Z,1.00
2018-11-10T16:30:14.765Z,99.90
2018-11-10T16:32:50.580Z,1.00
2018-11-10T16:35:25.910Z,1.00
2018-11-10T16:38:01.234Z,1.00
2018-11-10T16:40:36.602Z,1.00
2018-11-10T16:43:11.860Z,1.00
2018-11-10T16:45:47.142Z,1.00
2018-11-10T16:48:22.394Z,1.00
2018-11-10T16:50:57.912Z,35.30
2018-11-10T16:53:33.283Z,20.00
2018-11-10T16:56:08.721Z,99.90
2018-11-10T16:58:43.940Z,23.30
2018-11-10T17:01:19.724Z,1.00
2018-11-10T17:03:55.133Z,1.00
2018-11-10T17:06:30.669Z,99.90
2018-11-10T17:09:08.201Z,99.90
2018-11-10T17:11:43.441Z,99.90
2018-11-10T17:14:18.721Z,99.90
2018-11-10T17:16:54.003Z,99.90
2018-11-10T17:19:29.472Z,99.90
2018-11-10T17:22:05.340Z,99.90
2018-11-10T17:24:40.656Z,99.90
2018-11-10T17:27:16.531Z,99.90
2018-11-10T17:29:51.664Z,99.90
2018-11-10T17:32:27.052Z,99.90
2018-11-10T17:35:02.460Z,99.90
2018-11-10T17:37:38.111Z,99.90
2018-11-10T17:40:14.397Z,99.90
2018-11-10T17:42:49.725Z,99.90
2018-11-10T17:45:25.184Z,99.90
2018-11-10T17:48:00.669Z,99.90
2018-11-10T17:50:36.261Z,99.90
2018-11-10T17:53:11.615Z,99.90
2018-11-10T17:55:47.205Z,99.90
2018-11-10T17:58:22.767Z,99.90
2018-11-10T18:00:58.245Z,99.90
2018-11-10T18:03:33.776Z,99.90
2018-11-10T18:06:09.116Z,99.90
2018-11-10T18:08:44.523Z,99.90
2018-11-10T18:11:19.921Z,99.90
2018-11-10T18:13:55.376Z,99.90
2018-11-10T18:16:30.984Z,99.90
2018-11-10T18:19:06.870Z,99.90
2018-11-10T18:21:42.571Z,99.90
2018-11-10T18:24:18.023Z,99.90
2018-11-10T18:26:53.510Z,99.90
2018-11-10T18:29:29.067Z,99.90
2018-11-10T18:32:05.185Z,99.90
2018-11-10T18:34:40.618Z,99.90
2018-11-10T18:37:16.387Z,99.90
2018-11-10T18:39:52.246Z,99.90
2018-11-10T18:42:34.427Z,99.90
2018-11-10T18:45:10.920Z,99.90
2018-11-10T18:47:46.587Z,99.90
2018-11-10T18:50:22.020Z,99.90
2018-11-10T18:52:57.617Z,99.90
2018-11-10T18:55:33.222Z,99.90
2018-11-10T18:58:08.903Z,99.90
2018-11-10T19:00:44.622Z,99.90
2018-11-10T19:03:20.259Z,99.90
2018-11-10T19:05:55.852Z,99.90
2018-11-10T19:08:31.323Z,99.90
2018-11-10T19:11:06.792Z,99.90
2018-11-10T19:13:42.450Z,99.90
2018-11-10T19:16:17.919Z,99.90
2018-11-10T19:18:53.254Z,99.90
2018-11-10T19:21:28.992Z,99.90
2018-11-10T19:24:04.510Z,99.90
2018-11-10T19:26:40.083Z,99.90
2018-11-10T19:29:15.570Z,99.90
2018-11-10T19:31:51.269Z,99.90
2018-11-10T19:34:27.685Z,99.90
2018-11-10T19:37:03.382Z,99.90
2018-11-10T19:39:38.912Z,99.90
2018-11-10T19:42:16.074Z,99.90
2018-11-10T19:44:57.974Z,99.90
2018-11-10T19:47:33.432Z,99.90
2018-11-10T19:50:09.311Z,99.90
2018-11-10T19:52:44.938Z,99.90
2018-11-10T19:55:20.455Z,99.90
2018-11-10T19:57:55.795Z,99.90
2018-11-10T20:00:31.324Z,99.90
2018-11-10T20:03:07.034Z,99.90
2018-11-10T20:05:42.384Z,99.90
2018-11-10T20:08:17.870Z,99.90
2018-11-10T20:10:53.400Z,99.90
2018-11-10T20:13:28.809Z,99.90
2018-11-10T20:16:04.242Z,99.90
2018-11-10T20:18:39.942Z,99.90
2018-11-10T20:21:15.462Z,99.90
2018-11-10T20:23:50.791Z,99.90
2018-11-10T20:26:26.260Z,99.90
2018-11-10T20:29:01.564Z,99.90
2018-11-10T20:31:37.054Z,99.90
2018-11-10T20:34:12.464Z,99.90
2018-11-10T20:36:48.024Z,99.90
2018-11-10T20:40:26.660Z,99.90
2018-11-10T20:43:02.379Z,99.90
2018-11-10T20:45:37.908Z,99.90
2018-11-10T20:48:13.061Z,99.90
2018-11-10T20:50:48.506Z,99.90
2018-11-10T20:53:23.942Z,99.90
2018-11-10T20:55:59.164Z,99.90
2018-11-10T20:58:34.509Z,99.90
2018-11-10T21:01:09.991Z,99.90
2018-11-10T21:03:45.375Z,99.90
2018-11-10T21:06:20.694Z,99.90
2018-11-10T21:08:56.171Z,99.90
2018-11-10T21:11:31.824Z,99.90
2018-11-10T21:14:08.242Z,99.90
2018-11-10T21:16:43.862Z,99.90
2018-11-10T21:19:19.365Z,99.90
2018-11-10T21:21:54.954Z,99.90
2018-11-10T21:24:30.293Z,99.90
2018-11-10T21:27:05.773Z,99.90
2018-11-10T21:29:41.347Z,99.90
2018-11-10T21:32:16.867Z,99.90
2018-11-10T21:34:52.605Z,99.90
2018-11-10T21:37:27.985Z,99.90
2018-11-10T21:40:03.394Z,99.90
2018-11-10T21:42:38.614Z,99.90
2018-11-10T21:45:14.591Z,99.90
2018-11-10T21:47:49.813Z,99.90
2018-11-10T21:50:25.043Z,99.90
2018-11-10T21:53:00.515Z,99.90
2018-11-10T21:55:35.880Z,99.90
2018-11-10T21:58:11.380Z,99.90
2018-11-10T22:00:46.839Z,99.90
2018-11-10T22:03:22.304Z,99.90
2018-11-10T22:05:57.828Z,99.90
2018-11-10T22:08:33.241Z,99.90
2018-11-10T22:11:08.443Z,99.90
2018-11-10T22:13:43.753Z,99.90
2018-11-10T22:16:18.915Z,99.90
2018-11-10T22:18:54.413Z,99.90
2018-11-10T22:21:29.865Z,99.90
2018-11-10T22:24:05.306Z,99.90
2018-11-10T22:26:40.761Z,99.90
2018-11-10T22:29:16.551Z,99.90
2018-11-10T22:31:52.381Z,99.90
2018-11-10T22:34:27.914Z,99.90
2018-11-10T22:37:03.314Z,99.90
2018-11-10T22:39:38.653Z,99.90
2018-11-10T22:42:14.226Z,99.90
2018-11-10T22:44:49.734Z,99.90
2018-11-10T22:47:25.436Z,99.90
2018-11-10T22:50:00.916Z,99.90
2018-11-10T22:52:36.565Z,99.90
2018-11-10T22:55:12.018Z,99.90
2018-11-10T22:57:47.704Z,99.90
2018-11-10T23:00:25.896Z,99.90
2018-11-10T23:03:02.126Z,99.90
2018-11-10T23:05:37.502Z,99.90
2018-11-10T23:08:12.874Z,99.90
2018-11-10T23:10:48.403Z,99.90
2018-11-10T23:13:23.674Z,99.90
2018-11-10T23:15:59.062Z,99.90
2018-11-10T23:18:34.641Z,99.90
2018-11-10T23:21:10.270Z,99.90
2018-11-10T23:23:46.054Z,99.90
2018-11-10T23:26:21.685Z,99.90
2018-11-10T23:28:57.165Z,99.90
2018-11-10T23:31:32.865Z,99.90
2018-11-10T23:34:08.686Z,99.90
2018-11-10T23:36:44.372Z,99.90
2018-11-10T23:39:20.373Z,99.90
2018-11-10T23:41:55.874Z,99.90
2018-11-10T23:44:31.614Z,99.90
2018-11-10T23:47:06.981Z,99.90
2018-11-10T23:49:42.431Z,99.90
2018-11-10T23:52:18.051Z,99.90
2018-11-10T23:54:53.444Z,99.90
2018-11-10T23:57:28.852Z,99.90
